createdAt,value
2023-05-05T00:00:15.626Z,17.91
2023-05-05T00:02:42.164Z,17.93
2023-05-05T00:05:08.801Z,17.96
2023-05-05T00:07:35.201Z,17.97
2023-05-05T00:10:01.970Z,17.98
2023-05-05T00:12:28.596Z,17.99
2023-05-05T00:14:55.004Z,18.03
2023-05-05T00:17:21.705Z,18.03
2023-05-05T00:19:48.104Z,18.04
2023-05-05T00:22:15.365Z,18.06
2023-05-05T00:24:41.799Z,18.08
2023-05-05T00:27:08.207Z,18.10
2023-05-05T00:29:34.559Z,18.10
2023-05-05T00:32:01.487Z,18.12
2023-05-05T00:34:27.856Z,18.13
2023-05-05T00:36:54.699Z,18.14
2023-05-05T00:39:21.202Z,18.15
2023-05-05T00:41:47.548Z,18.16
2023-05-05T00:44:14.996Z,18.17
2023-05-05T00:46:42.448Z,18.16
2023-05-05T00:49:09.750Z,18.18
2023-05-05T00:51:36.572Z,18.19
2023-05-05T00:54:02.995Z,18.19
2023-05-05T00:56:29.648Z,18.22
2023-05-05T00:58:56.411Z,18.24
2023-05-05T01:01:23.071Z,18.25
2023-05-05T01:03:49.645Z,18.27
2023-05-05T01:06:39.941Z,18.30
2023-05-05T01:09:36.370Z,18.33
2023-05-05T01:12:14.525Z,18.35
2023-05-05T01:14:55.996Z,18.36
2023-05-05T01:17:29.911Z,18.38
2023-05-05T01:20:12.532Z,18.40
2023-05-05T01:22:47.276Z,18.40
2023-05-05T01:25:30.752Z,18.42
2023-05-05T01:28:28.545Z,18.42
2023-05-05T01:31:03.188Z,18.41
2023-05-05T01:33:36.792Z,18.41
2023-05-05T01:36:12.103Z,18.38
2023-05-05T01:38:41.199Z,18.35
2023-05-05T01:41:17.168Z,18.32
2023-05-05T01:43:45.748Z,18.34
2023-05-05T01:46:13.756Z,18.31
2023-05-05T01:48:42.584Z,18.26
2023-05-05T01:51:10.382Z,18.20
2023-05-05T01:53:37.324Z,18.16
2023-05-05T01:56:04.842Z,18.11
2023-05-05T01:58:32.759Z,18.07
2023-05-05T02:01:00.825Z,18.02
2023-05-05T02:03:28.798Z,17.98
2023-05-05T02:05:57.131Z,17.94
2023-05-05T02:08:25.965Z,17.90
2023-05-05T02:10:54.010Z,17.85
2023-05-05T02:13:21.244Z,17.83
2023-05-05T02:15:49.487Z,17.77
2023-05-05T02:18:16.508Z,17.74
2023-05-05T02:20:43.713Z,17.68
2023-05-05T02:23:10.215Z,17.64
2023-05-05T02:25:50.375Z,17.62
2023-05-05T02:28:22.928Z,17.60
2023-05-05T02:30:59.946Z,17.54
2023-05-05T02:33:29.228Z,17.50
2023-05-05T02:35:59.529Z,17.49
2023-05-05T02:38:29.266Z,17.48
2023-05-05T02:40:58.032Z,17.47
2023-05-05T02:43:25.658Z,17.48
2023-05-05T02:45:52.135Z,17.48
2023-05-05T02:48:18.510Z,17.49
2023-05-05T02:50:44.895Z,17.49
2023-05-05T02:53:11.334Z,17.49
2023-05-05T02:55:54.318Z,17.49
2023-05-05T02:58:31.463Z,17.48
2023-05-05T03:01:03.832Z,17.44
2023-05-05T03:03:46.914Z,17.42
2023-05-05T03:06:19.515Z,17.40
2023-05-05T03:09:18.508Z,17.38
2023-05-05T03:11:50.905Z,17.34
2023-05-05T03:14:19.155Z,17.32
2023-05-05T03:16:46.959Z,17.31
2023-05-05T03:19:18.352Z,17.30
2023-05-05T03:21:45.322Z,17.30
2023-05-05T03:24:19.359Z,17.32
2023-05-05T03:26:47.723Z,17.32
2023-05-05T03:29:14.649Z,17.33
2023-05-05T03:31:41.320Z,17.34
2023-05-05T03:34:08.455Z,17.35
2023-05-05T03:36:35.820Z,17.38
2023-05-05T03:39:02.300Z,17.39
2023-05-05T03:41:28.776Z,17.40
2023-05-05T03:43:55.146Z,17.40
2023-05-05T03:46:21.659Z,17.41
2023-05-05T03:48:48.605Z,17.42
2023-05-05T03:51:15.662Z,17.43
2023-05-05T03:53:42.122Z,17.44
2023-05-05T03:56:08.639Z,17.42
2023-05-05T03:58:35.066Z,17.40
2023-05-05T04:01:01.751Z,17.40
2023-05-05T04:03:28.204Z,17.39
2023-05-05T04:05:54.868Z,17.36
2023-05-05T04:08:21.209Z,17.37
2023-05-05T04:10:47.554Z,17.36
2023-05-05T04:13:14.068Z,17.37
2023-05-05T04:15:45.638Z,17.37
2023-05-05T04:18:12.267Z,17.36
2023-05-05T04:20:38.692Z,17.36
2023-05-05T04:23:05.049Z,17.36
2023-05-05T04:25:31.626Z,17.36
2023-05-05T04:27:58.036Z,17.36
2023-05-05T04:30:24.426Z,17.34
2023-05-05T04:32:51.153Z,17.33
2023-05-05T04:35:17.730Z,17.32
2023-05-05T04:37:44.153Z,17.32
2023-05-05T04:40:11.002Z,17.32
2023-05-05T04:42:37.624Z,17.35
2023-05-05T04:45:04.584Z,17.39
2023-05-05T04:47:31.261Z,17.46
2023-05-05T04:49:57.651Z,17.53
2023-05-05T04:52:24.004Z,17.61
2023-05-05T04:54:50.417Z,17.69
2023-05-05T04:57:16.750Z,17.75
2023-05-05T04:59:43.161Z,17.82
2023-05-05T05:02:09.590Z,17.87
2023-05-05T05:04:36.131Z,17.90
2023-05-05T05:07:02.570Z,17.91
2023-05-05T05:09:29.034Z,17.91
2023-05-05T05:11:59.864Z,17.91
2023-05-05T05:14:28.018Z,17.87
2023-05-05T05:16:54.597Z,17.83
2023-05-05T05:19:21.406Z,17.79
2023-05-05T05:21:47.954Z,17.75
2023-05-05T05:24:14.304Z,17.72
2023-05-05T05:26:40.716Z,17.67
2023-05-05T05:29:07.132Z,17.64
2023-05-05T05:31:34.352Z,17.60
2023-05-05T05:34:00.950Z,17.59
2023-05-05T05:36:27.384Z,17.57
2023-05-05T05:38:53.829Z,17.55
2023-05-05T05:41:20.167Z,17.52
2023-05-05T05:43:46.496Z,17.52
2023-05-05T05:46:12.916Z,17.50
2023-05-05T05:48:39.428Z,17.49
2023-05-05T05:51:05.853Z,17.47
2023-05-05T05:53:32.701Z,17.44
2023-05-05T05:55:59.155Z,17.43
2023-05-05T05:58:25.664Z,17.40
2023-05-05T06:00:52.121Z,17.40
2023-05-05T06:03:18.663Z,17.39
2023-05-05T06:05:46.302Z,17.40
2023-05-05T06:08:12.843Z,17.40
2023-05-05T06:10:39.818Z,17.43
2023-05-05T06:13:06.454Z,17.45
2023-05-05T06:15:32.943Z,17.47
2023-05-05T06:17:59.377Z,17.49
2023-05-05T06:20:26.149Z,17.53
2023-05-05T06:22:52.913Z,17.59
2023-05-05T06:25:19.256Z,17.66
2023-05-05T06:27:46.166Z,17.74
2023-05-05T06:30:13.063Z,17.85
2023-05-05T06:32:39.491Z,17.94
2023-05-05T06:35:07.077Z,18.06
2023-05-05T06:37:33.444Z,18.16
2023-05-05T06:39:59.960Z,18.26
2023-05-05T06:42:26.409Z,18.33
2023-05-05T06:44:52.934Z,18.41
2023-05-05T06:47:19.437Z,18.47
2023-05-05T06:49:45.812Z,18.51
2023-05-05T06:52:12.647Z,18.53
2023-05-05T06:54:39.011Z,18.55
2023-05-05T06:57:05.549Z,18.56
2023-05-05T06:59:32.373Z,18.56
2023-05-05T07:01:59.274Z,18.57
2023-05-05T07:04:26.699Z,18.60
2023-05-05T07:06:55.157Z,18.64
2023-05-05T07:09:21.537Z,18.69
2023-05-05T07:11:47.914Z,18.75
2023-05-05T07:14:14.401Z,18.80
2023-05-05T07:16:40.823Z,18.85
2023-05-05T07:19:07.344Z,18.89
2023-05-05T07:21:34.059Z,18.94
2023-05-05T07:24:01.120Z,19.01
2023-05-05T07:26:27.633Z,19.08
2023-05-05T07:28:56.047Z,19.17
2023-05-05T07:31:22.593Z,19.25
2023-05-05T07:33:49.724Z,19.34
2023-05-05T07:36:17.883Z,19.45
2023-05-05T07:38:44.426Z,19.54
2023-05-05T07:41:13.048Z,19.63
2023-05-05T07:43:44.617Z,19.72
2023-05-05T07:46:11.881Z,19.79
2023-05-05T07:48:41.665Z,19.87
2023-05-05T07:51:08.818Z,19.93
2023-05-05T07:53:35.254Z,19.99
2023-05-05T07:56:01.787Z,20.05
2023-05-05T07:58:28.210Z,20.09
2023-05-05T08:00:54.640Z,20.15
2023-05-05T08:03:24.326Z,20.21
2023-05-05T08:05:54.098Z,20.27
2023-05-05T08:08:24.306Z,20.30
2023-05-05T08:10:51.867Z,20.33
2023-05-05T08:13:18.514Z,20.36
2023-05-05T08:15:45.336Z,20.38
2023-05-05T08:18:11.772Z,20.39
2023-05-05T08:20:38.158Z,20.42
2023-05-05T08:23:04.840Z,20.46
2023-05-05T08:25:31.168Z,20.52
2023-05-05T08:27:57.613Z,20.59
2023-05-05T08:30:24.131Z,20.69
2023-05-05T08:32:50.678Z,20.77
2023-05-05T08:35:17.978Z,20.86
2023-05-05T08:37:44.393Z,20.94
2023-05-05T08:40:14.468Z,21.04
2023-05-05T08:42:41.919Z,21.12
2023-05-05T08:45:10.222Z,21.22
2023-05-05T08:47:38.734Z,21.33
2023-05-05T08:50:05.883Z,21.43
2023-05-05T08:52:40.385Z,21.58
2023-05-05T08:55:19.942Z,21.72
2023-05-05T08:57:51.822Z,21.83
2023-05-05T09:00:19.784Z,21.94
2023-05-05T09:02:46.943Z,22.06
2023-05-05T09:05:13.534Z,22.18
2023-05-05T09:07:43.860Z,22.32
2023-05-05T09:10:12.024Z,22.46
2023-05-05T09:12:41.971Z,22.59
2023-05-05T09:15:10.478Z,22.72
2023-05-05T09:17:37.790Z,22.83
2023-05-05T09:20:09.154Z,22.95
2023-05-05T09:22:37.871Z,23.03
2023-05-05T09:25:05.933Z,23.12
2023-05-05T09:27:40.956Z,23.21
2023-05-05T09:30:08.646Z,23.28
2023-05-05T09:32:49.179Z,23.36
2023-05-05T09:35:16.691Z,23.40
2023-05-05T09:37:43.572Z,23.47
2023-05-05T09:40:11.392Z,23.52
2023-05-05T09:42:38.850Z,23.57
2023-05-05T09:45:26.566Z,23.65
2023-05-05T09:47:58.773Z,23.71
2023-05-05T09:50:29.993Z,23.77
2023-05-05T09:52:58.042Z,23.82
2023-05-05T09:55:25.051Z,23.83
2023-05-05T09:57:51.630Z,23.86
2023-05-05T10:00:18.357Z,23.89
2023-05-05T10:02:45.839Z,23.92
2023-05-05T10:05:15.533Z,23.96
2023-05-05T10:07:43.741Z,23.99
2023-05-05T10:10:17.432Z,24.04
2023-05-05T10:12:46.467Z,24.07
2023-05-05T10:15:15.630Z,24.12
2023-05-05T10:20:19.059Z,24.22
2023-05-05T10:22:54.379Z,24.31
2023-05-05T10:25:28.920Z,24.39
2023-05-05T10:27:57.745Z,24.44
2023-05-05T10:30:28.228Z,24.52
2023-05-05T10:33:18.250Z,24.61
2023-05-05T10:35:57.184Z,24.72
2023-05-05T10:38:26.832Z,24.79
2023-05-05T10:40:54.937Z,24.89
2023-05-05T10:43:21.671Z,25.01
2023-05-05T10:45:48.544Z,25.14
2023-05-05T10:48:44.574Z,25.29
2023-05-05T10:51:41.147Z,25.49
2023-05-05T10:54:32.659Z,25.67
2023-05-05T10:57:02.580Z,25.77
2023-05-05T10:59:37.957Z,25.86
2023-05-05T11:02:31.422Z,25.89
2023-05-05T11:05:18.117Z,25.89
2023-05-05T11:07:46.339Z,25.87
2023-05-05T11:10:19.963Z,25.86
2023-05-05T11:12:52.298Z,25.89
2023-05-05T11:15:27.973Z,25.92
2023-05-05T11:17:56.376Z,25.93
2023-05-05T11:20:41.948Z,25.96
2023-05-05T11:23:08.273Z,25.95
2023-05-05T11:25:34.575Z,25.94
2023-05-05T11:28:09.313Z,25.96
2023-05-05T11:30:55.821Z,25.98
2023-05-05T11:33:36.949Z,25.99
2023-05-05T11:36:13.135Z,26.02
2023-05-05T11:38:55.599Z,26.09
2023-05-05T11:41:36.917Z,26.19
2023-05-05T11:44:20.245Z,26.34
2023-05-05T11:46:52.606Z,26.48
2023-05-05T11:49:31.843Z,26.62
2023-05-05T11:52:03.812Z,26.75
2023-05-05T11:54:30.921Z,26.83
2023-05-05T11:57:01.913Z,26.91
2023-05-05T11:59:28.243Z,26.97
2023-05-05T12:01:55.122Z,27.05
2023-05-05T12:04:21.609Z,27.12
2023-05-05T12:06:49.006Z,27.20
2023-05-05T12:09:20.149Z,27.28
2023-05-05T12:11:50.826Z,27.34
2023-05-05T12:14:17.187Z,27.35
2023-05-05T12:16:56.246Z,27.36
2023-05-05T12:19:30.017Z,27.34
2023-05-05T12:21:56.959Z,27.31
2023-05-05T12:24:23.490Z,27.29
2023-05-05T12:26:49.910Z,27.28
2023-05-05T12:29:26.098Z,27.30
2023-05-05T12:31:52.915Z,27.34
2023-05-05T12:34:19.613Z,27.38
2023-05-05T12:36:46.278Z,27.42
2023-05-05T12:39:13.293Z,27.44
2023-05-05T12:41:40.080Z,27.48
2023-05-05T12:44:06.860Z,27.48
2023-05-05T12:46:48.951Z,27.54
2023-05-05T12:49:16.640Z,27.57
2023-05-05T12:51:56.577Z,27.64
2023-05-05T12:54:24.913Z,27.66
2023-05-05T12:56:51.442Z,27.69
2023-05-05T12:59:21.009Z,27.71
2023-05-05T13:01:56.122Z,27.71
2023-05-05T13:04:24.632Z,27.71
2023-05-05T13:07:11.085Z,27.72
2023-05-05T13:09:37.592Z,27.73
2023-05-05T13:12:04.804Z,27.72
2023-05-05T13:14:34.739Z,27.73
2023-05-05T13:17:01.295Z,27.73
2023-05-05T13:19:27.734Z,27.74
2023-05-05T13:21:54.823Z,27.77
2023-05-05T13:24:28.745Z,27.78
2023-05-05T13:27:05.501Z,27.82
2023-05-05T13:29:32.993Z,27.83
2023-05-05T13:31:59.827Z,27.87
2023-05-05T13:34:26.887Z,27.89
2023-05-05T13:36:53.559Z,27.89
2023-05-05T13:39:20.166Z,27.90
2023-05-05T13:41:46.778Z,27.90
2023-05-05T13:44:14.048Z,27.90
2023-05-05T13:46:42.443Z,27.88
2023-05-05T13:49:08.901Z,27.87
2023-05-05T13:51:35.415Z,27.85
2023-05-05T13:54:01.899Z,27.84
2023-05-05T13:56:28.525Z,27.82
2023-05-05T13:58:54.914Z,27.76
2023-05-05T14:01:21.341Z,27.69
2023-05-05T14:03:47.821Z,27.58
2023-05-05T14:06:14.213Z,27.43
2023-05-05T14:08:40.571Z,27.28
2023-05-05T14:11:06.956Z,27.08
2023-05-05T14:13:33.372Z,26.89
2023-05-05T14:15:59.940Z,26.68
2023-05-05T14:18:26.518Z,26.46
2023-05-05T14:20:53.058Z,26.21
2023-05-05T14:23:21.291Z,25.92
2023-05-05T14:25:47.666Z,25.54
2023-05-05T14:28:14.152Z,25.09
2023-05-05T14:30:40.500Z,24.50
2023-05-05T14:33:06.960Z,23.80
2023-05-05T14:35:33.467Z,23.08
2023-05-05T14:37:59.811Z,22.37
2023-05-05T14:40:26.328Z,21.70
2023-05-05T14:42:52.769Z,21.12
2023-05-05T14:45:19.176Z,20.60
2023-05-05T14:47:45.621Z,20.16
2023-05-05T14:50:12.162Z,19.77
2023-05-05T14:52:40.179Z,19.43
2023-05-05T14:55:07.319Z,19.15
2023-05-05T14:57:34.513Z,18.93
2023-05-05T15:00:00.908Z,18.74
2023-05-05T15:02:27.333Z,18.58
2023-05-05T15:04:53.741Z,18.46
2023-05-05T15:07:21.240Z,18.37
2023-05-05T15:09:47.666Z,18.27
2023-05-05T15:12:14.069Z,18.24
2023-05-05T15:14:40.823Z,18.23
2023-05-05T15:17:07.179Z,18.21
2023-05-05T15:19:33.616Z,18.20
2023-05-05T15:21:59.989Z,18.17
2023-05-05T15:24:26.353Z,18.15
2023-05-05T15:26:52.710Z,18.08
2023-05-05T15:29:19.162Z,18.01
2023-05-05T15:31:45.571Z,17.91
2023-05-05T15:34:12.124Z,17.81
2023-05-05T15:36:38.503Z,17.73
2023-05-05T15:39:05.025Z,17.64
2023-05-05T15:41:34.206Z,17.55
2023-05-05T15:44:02.001Z,17.45
2023-05-05T15:46:32.044Z,17.37
2023-05-05T15:48:58.509Z,17.30
2023-05-05T15:51:24.925Z,17.26
2023-05-05T15:53:53.287Z,17.24
2023-05-05T15:56:19.728Z,17.24
2023-05-05T15:58:48.852Z,17.27
2023-05-05T16:01:15.532Z,17.29
2023-05-05T16:03:42.364Z,17.32
2023-05-05T16:06:11.488Z,17.36
2023-05-05T16:08:38.776Z,17.36
2023-05-05T16:11:05.602Z,17.36
2023-05-05T16:13:31.985Z,17.36
2023-05-05T16:15:58.348Z,17.37
2023-05-05T16:18:24.724Z,17.37
2023-05-05T16:20:51.173Z,17.41
2023-05-05T16:23:17.757Z,17.45
2023-05-05T16:25:44.709Z,17.47
2023-05-05T16:28:11.085Z,17.52
2023-05-05T16:30:38.060Z,17.56
2023-05-05T16:33:04.471Z,17.60
2023-05-05T16:35:30.931Z,17.64
2023-05-05T16:37:57.510Z,17.66
2023-05-05T16:40:23.905Z,17.68
2023-05-05T16:42:50.349Z,17.72
2023-05-05T16:45:16.689Z,17.73
2023-05-05T16:47:43.153Z,17.75
2023-05-05T16:50:09.954Z,17.78
2023-05-05T16:52:36.294Z,17.81
2023-05-05T16:55:04.726Z,17.85
2023-05-05T16:57:31.841Z,17.91
2023-05-05T16:59:58.222Z,17.94
2023-05-05T17:02:24.684Z,18.01
2023-05-05T17:04:51.116Z,18.04
2023-05-05T17:07:17.492Z,18.07
2023-05-05T17:09:43.896Z,18.10
2023-05-05T17:12:10.276Z,18.10
2023-05-05T17:14:36.682Z,18.14
2023-05-05T17:17:03.080Z,18.19
2023-05-05T17:19:29.416Z,18.27
2023-05-05T17:21:55.883Z,18.37
2023-05-05T17:24:22.662Z,18.44
2023-05-05T17:26:49.076Z,18.50
2023-05-05T17:29:19.675Z,18.56
2023-05-05T17:31:46.583Z,18.60
2023-05-05T17:34:13.031Z,18.64
2023-05-05T17:36:39.432Z,18.66
2023-05-05T17:39:06.107Z,18.68
2023-05-05T17:41:32.532Z,18.74
2023-05-05T17:43:59.402Z,18.84
2023-05-05T17:46:26.047Z,19.03
2023-05-05T17:48:52.601Z,19.27
2023-05-05T17:51:19.122Z,19.55
2023-05-05T17:53:45.521Z,19.84
2023-05-05T17:56:11.970Z,20.15
2023-05-05T17:58:38.395Z,20.43
2023-05-05T18:01:04.882Z,20.68
2023-05-05T18:03:31.538Z,20.91
2023-05-05T18:05:58.103Z,21.10
2023-05-05T18:08:24.470Z,21.27
2023-05-05T18:10:50.889Z,21.38
2023-05-05T18:13:17.288Z,21.42
2023-05-05T18:15:43.748Z,21.39
2023-05-05T18:18:10.295Z,21.31
2023-05-05T18:20:36.698Z,21.19
2023-05-05T18:23:03.042Z,21.08
2023-05-05T18:25:29.502Z,20.93
2023-05-05T18:27:58.433Z,20.81
2023-05-05T18:30:24.904Z,20.67
2023-05-05T18:32:51.499Z,20.54
2023-05-05T18:35:17.972Z,20.40
2023-05-05T18:37:44.504Z,20.25
2023-05-05T18:40:11.230Z,20.11
2023-05-05T18:42:37.663Z,19.98
2023-05-05T18:45:04.625Z,19.86
2023-05-05T18:47:31.121Z,19.74
2023-05-05T18:49:57.510Z,19.63
2023-05-05T18:52:24.508Z,19.53
2023-05-05T18:54:50.899Z,19.45
2023-05-05T18:57:17.352Z,19.35
2023-05-05T18:59:43.705Z,19.24
2023-05-05T19:02:10.130Z,19.14
2023-05-05T19:04:37.939Z,19.03
2023-05-05T19:07:04.733Z,18.93
2023-05-05T19:09:31.373Z,18.81
2023-05-05T19:11:57.809Z,18.71
2023-05-05T19:14:24.323Z,18.62
2023-05-05T19:16:51.282Z,18.52
2023-05-05T19:19:18.217Z,18.44
2023-05-05T19:21:44.569Z,18.35
2023-05-05T19:24:11.541Z,18.27
2023-05-05T19:26:37.956Z,18.19
2023-05-05T19:29:04.401Z,18.11
2023-05-05T19:31:31.325Z,18.02
2023-05-05T19:34:00.450Z,17.93
2023-05-05T19:36:27.753Z,17.84
2023-05-05T19:38:55.443Z,17.74
2023-05-05T19:41:21.874Z,17.64
2023-05-05T19:43:49.844Z,17.55
2023-05-05T19:46:17.155Z,17.47
2023-05-05T19:48:44.133Z,17.39
2023-05-05T19:51:10.559Z,17.29
2023-05-05T19:53:37.008Z,17.21
2023-05-05T19:56:04.877Z,17.10
2023-05-05T19:58:51.769Z,17.01
2023-05-05T20:01:18.255Z,16.90
2023-05-05T20:03:44.685Z,16.81
2023-05-05T20:06:11.281Z,16.75
2023-05-05T20:08:39.072Z,16.68
2023-05-05T20:11:05.503Z,16.63
2023-05-05T20:13:34.271Z,16.59
2023-05-05T20:16:00.930Z,16.53
2023-05-05T20:18:27.373Z,16.48
2023-05-05T20:20:53.810Z,16.44
2023-05-05T20:23:20.290Z,16.40
2023-05-05T20:25:46.733Z,16.38
2023-05-05T20:28:13.075Z,16.36
2023-05-05T20:30:39.508Z,16.33
2023-05-05T20:33:05.919Z,16.30
2023-05-05T20:35:32.400Z,16.28
2023-05-05T20:37:58.825Z,16.27
2023-05-05T20:40:25.464Z,16.24
2023-05-05T20:42:51.801Z,16.23
2023-05-05T20:45:18.554Z,16.23
2023-05-05T20:47:45.006Z,16.22
2023-05-05T20:50:11.949Z,16.22
2023-05-05T20:52:38.577Z,16.21
2023-05-05T20:55:05.348Z,16.21
2023-05-05T20:57:31.854Z,16.19
2023-05-05T20:59:58.292Z,16.16
2023-05-05T21:02:24.786Z,16.13
2023-05-05T21:04:51.465Z,16.09
2023-05-05T21:07:17.790Z,16.06
2023-05-05T21:09:47.078Z,16.04
2023-05-05T21:12:13.416Z,15.97
2023-05-05T21:14:44.689Z,15.94
2023-05-05T21:17:11.028Z,15.88
2023-05-05T21:19:37.375Z,15.84
2023-05-05T21:22:04.365Z,15.80
2023-05-05T21:24:30.721Z,15.76
2023-05-05T21:26:57.179Z,15.72
2023-05-05T21:29:27.012Z,15.68
2023-05-05T21:31:53.492Z,15.65
2023-05-05T21:34:20.157Z,15.63
2023-05-05T21:36:46.541Z,15.60
2023-05-05T21:39:12.920Z,15.59
2023-05-05T21:41:39.302Z,15.57
2023-05-05T21:44:05.714Z,15.54
2023-05-05T21:46:32.161Z,15.52
2023-05-05T21:48:58.552Z,15.47
2023-05-05T21:51:25.279Z,15.42
2023-05-05T21:53:51.657Z,15.37
2023-05-05T21:56:18.018Z,15.34
2023-05-05T21:58:44.623Z,15.31
2023-05-05T22:01:12.050Z,15.29
2023-05-05T22:03:38.662Z,15.26
2023-05-05T22:06:05.319Z,15.23
2023-05-05T22:08:31.783Z,15.20
2023-05-05T22:10:58.120Z,15.15
2023-05-05T22:13:24.509Z,15.12
2023-05-05T22:15:51.090Z,15.09
2023-05-05T22:18:17.542Z,15.05
2023-05-05T22:20:43.968Z,15.02
2023-05-05T22:23:10.692Z,14.98
2023-05-05T22:25:37.101Z,14.93
2023-05-05T22:28:04.098Z,14.90
2023-05-05T22:30:30.833Z,14.86
2023-05-05T22:32:57.313Z,14.82
2023-05-05T22:35:23.741Z,14.77
2023-05-05T22:37:50.125Z,14.71
2023-05-05T22:40:16.517Z,14.65
2023-05-05T22:42:43.005Z,14.60
2023-05-05T22:45:10.303Z,14.54
2023-05-05T22:47:37.113Z,14.47
2023-05-05T22:50:03.609Z,14.41
2023-05-05T22:52:29.951Z,14.35
2023-05-05T22:54:56.483Z,14.32
2023-05-05T22:57:23.221Z,14.25
2023-05-05T22:59:50.119Z,14.21
2023-05-05T23:02:16.494Z,14.16
2023-05-05T23:04:44.564Z,14.14
2023-05-05T23:07:14.392Z,14.11
2023-05-05T23:09:40.921Z,14.07
2023-05-05T23:12:07.380Z,14.04
2023-05-05T23:14:33.888Z,14.01
2023-05-05T23:17:00.776Z,13.98
2023-05-05T23:19:28.988Z,13.96
2023-05-05T23:21:55.732Z,13.94
2023-05-05T23:24:22.136Z,13.91
2023-05-05T23:26:48.506Z,13.88
2023-05-05T23:29:14.973Z,13.84
2023-05-05T23:31:41.406Z,13.81
2023-05-05T23:34:07.747Z,13.78
2023-05-05T23:36:34.153Z,13.74
2023-05-05T23:39:00.553Z,13.70
2023-05-05T23:41:27.022Z,13.67
2023-05-05T23:43:53.417Z,13.63
2023-05-05T23:46:19.795Z,13.59
2023-05-05T23:48:46.224Z,13.56
2023-05-05T23:51:12.550Z,13.52
2023-05-05T23:53:38.888Z,13.49
2023-05-05T23:56:05.665Z,13.47
2023-05-05T23:58:32.001Z,13.42
